createdAt,value
2022-11-27T00:01:29.599Z,13.00
2022-11-27T00:04:06.891Z,13.00
2022-11-27T00:06:37.938Z,12.90
2022-11-27T00:09:10.315Z,13.00
2022-11-27T00:11:40.732Z,13.00
2022-11-27T00:14:11.870Z,12.90
2022-11-27T00:16:40.881Z,13.00
2022-11-27T00:19:10.812Z,13.00
2022-11-27T00:21:40.115Z,12.90
2022-11-27T00:24:11.747Z,12.90
2022-11-27T00:26:40.787Z,12.90
2022-11-27T00:29:11.053Z,12.90
2022-11-27T00:31:40.385Z,12.90
2022-11-27T00:34:11.710Z,12.90
2022-11-27T00:36:44.006Z,12.90
2022-11-27T00:39:17.020Z,12.90
2022-11-27T00:41:46.319Z,12.90
2022-11-27T00:44:17.750Z,12.90
2022-11-27T00:46:48.356Z,12.90
2022-11-27T00:49:23.558Z,12.90
2022-11-27T00:52:05.239Z,12.90
2022-11-27T00:54:35.839Z,12.90
2022-11-27T00:57:05.348Z,12.80
2022-11-27T00:59:34.385Z,12.80
2022-11-27T01:02:03.435Z,12.80
2022-11-27T01:04:32.552Z,12.80
2022-11-27T01:07:01.519Z,12.80
2022-11-27T01:13:07.268Z,12.80
2022-11-27T01:15:36.303Z,12.80
2022-11-27T01:18:05.415Z,12.80
2022-11-27T01:20:34.426Z,12.80
2022-11-27T01:23:03.522Z,12.80
2022-11-27T01:25:32.551Z,12.80
2022-11-27T01:28:01.638Z,12.80
2022-11-27T01:30:32.185Z,12.80
2022-11-27T01:33:01.188Z,12.70
2022-11-27T01:35:32.066Z,12.70
2022-11-27T01:38:05.116Z,12.70
2022-11-27T01:40:34.243Z,12.70
2022-11-27T01:43:03.256Z,12.70
2022-11-27T01:45:33.761Z,12.60
2022-11-27T01:48:05.588Z,12.60
2022-11-27T01:50:38.846Z,12.60
2022-11-27T01:53:23.206Z,12.60
2022-11-27T01:55:59.823Z,12.60
2022-11-27T01:58:31.471Z,12.60
2022-11-27T02:01:02.329Z,12.60
2022-11-27T02:03:31.323Z,12.60
2022-11-27T02:06:00.339Z,12.50
2022-11-27T02:08:29.365Z,12.60
2022-11-27T02:11:04.301Z,12.60
2022-11-27T02:13:38.677Z,12.60
2022-11-27T02:16:18.270Z,12.50
2022-11-27T02:18:57.394Z,12.50
2022-11-27T02:21:36.425Z,12.50
2022-11-27T02:24:32.190Z,12.50
2022-11-27T02:27:22.740Z,12.50
2022-11-27T02:29:57.051Z,12.50
2022-11-27T02:32:30.727Z,12.40
2022-11-27T02:35:05.380Z,12.40
2022-11-27T02:37:37.959Z,12.40
2022-11-27T02:40:13.164Z,12.40
2022-11-27T02:42:44.994Z,12.40
2022-11-27T02:45:19.368Z,12.40
2022-11-27T02:47:57.038Z,12.40
2022-11-27T02:50:29.377Z,12.30
2022-11-27T02:53:04.093Z,12.30
2022-11-27T02:55:35.882Z,12.30
2022-11-27T02:58:10.428Z,12.30
2022-11-27T03:00:45.762Z,12.30
2022-11-27T03:03:18.669Z,12.40
2022-11-27T03:05:53.609Z,12.30
2022-11-27T03:08:30.192Z,12.30
2022-11-27T03:11:05.002Z,12.30
2022-11-27T03:13:38.506Z,12.30
2022-11-27T03:16:14.420Z,12.30
2022-11-27T03:18:53.873Z,12.30
2022-11-27T03:21:29.065Z,12.30
2022-11-27T03:23:59.521Z,12.30
2022-11-27T03:26:29.994Z,12.20
2022-11-27T03:29:01.555Z,12.20
2022-11-27T03:31:32.600Z,12.20
2022-11-27T03:34:02.040Z,12.10
2022-11-27T03:36:31.808Z,12.10
2022-11-27T03:39:00.865Z,12.10
2022-11-27T03:41:41.904Z,12.10
2022-11-27T03:44:18.532Z,12.10
2022-11-27T03:46:58.698Z,12.10
2022-11-27T03:49:47.335Z,12.10
2022-11-27T03:52:28.164Z,12.00
2022-11-27T03:55:03.690Z,12.00
2022-11-27T03:57:38.949Z,12.00
2022-11-27T04:00:11.645Z,12.00
2022-11-27T04:02:45.428Z,12.00
2022-11-27T04:05:15.434Z,11.90
2022-11-27T04:07:44.562Z,11.90
2022-11-27T04:10:14.392Z,11.90
2022-11-27T04:12:43.940Z,11.90
2022-11-27T04:15:13.815Z,11.90
2022-11-27T04:17:44.218Z,11.90
2022-11-27T04:20:15.624Z,11.80
2022-11-27T04:22:44.375Z,11.80
2022-11-27T04:25:13.371Z,11.80
2022-11-27T04:27:42.461Z,11.80
2022-11-27T04:30:12.449Z,11.80
2022-11-27T04:32:41.552Z,11.80
2022-11-27T04:35:12.654Z,11.70
2022-11-27T04:37:41.890Z,11.80
2022-11-27T04:40:11.949Z,11.70
2022-11-27T04:42:40.968Z,11.60
2022-11-27T04:45:10.756Z,11.60
2022-11-27T04:47:39.756Z,11.60
2022-11-27T04:50:10.267Z,11.60
2022-11-27T04:52:40.776Z,11.50
2022-11-27T04:55:10.663Z,11.50
2022-11-27T04:57:39.728Z,11.50
2022-11-27T05:00:10.091Z,11.50
2022-11-27T05:02:39.628Z,11.50
2022-11-27T05:05:09.408Z,11.50
2022-11-27T05:07:40.179Z,11.50
2022-11-27T05:10:10.535Z,11.40
2022-11-27T05:12:44.051Z,11.40
2022-11-27T05:15:14.226Z,11.40
2022-11-27T05:17:47.849Z,11.40
2022-11-27T05:20:31.255Z,11.40
2022-11-27T05:23:01.642Z,11.40
2022-11-27T05:25:30.671Z,11.40
2022-11-27T05:27:59.698Z,11.40
2022-11-27T05:30:28.723Z,11.40
2022-11-27T05:32:57.957Z,11.30
2022-11-27T05:35:26.953Z,11.30
2022-11-27T05:37:55.967Z,11.30
2022-11-27T05:40:26.314Z,11.30
2022-11-27T05:42:55.311Z,11.30
2022-11-27T05:45:24.362Z,11.30
2022-11-27T05:47:53.470Z,11.30
2022-11-27T05:50:22.765Z,11.30
2022-11-27T05:52:51.817Z,11.30
2022-11-27T05:55:20.779Z,11.30
2022-11-27T05:57:51.149Z,11.20
2022-11-27T06:00:20.490Z,11.20
2022-11-27T06:02:49.588Z,11.20
2022-11-27T06:05:18.726Z,11.20
2022-11-27T06:07:48.068Z,11.20
2022-11-27T06:10:17.505Z,11.20
2022-11-27T06:12:46.546Z,11.20
2022-11-27T06:15:17.184Z,11.20
2022-11-27T06:17:46.229Z,11.20
2022-11-27T06:20:15.456Z,11.20
2022-11-27T06:22:44.487Z,11.10
2022-11-27T06:25:13.638Z,11.20
2022-11-27T06:27:59.169Z,11.20
2022-11-27T06:30:29.626Z,11.20
2022-11-27T06:32:58.623Z,11.20
2022-11-27T06:35:27.833Z,11.20
2022-11-27T06:37:56.835Z,11.20
2022-11-27T06:40:25.833Z,11.20
2022-11-27T06:42:54.839Z,11.20
2022-11-27T06:45:23.908Z,11.20
2022-11-27T06:47:54.355Z,11.20
2022-11-27T06:50:23.306Z,11.20
2022-11-27T06:52:52.220Z,11.20
2022-11-27T06:55:21.208Z,11.20
2022-11-27T06:57:51.808Z,11.20
2022-11-27T07:00:21.584Z,11.20
2022-11-27T07:02:56.790Z,11.20
2022-11-27T07:05:26.240Z,11.20
2022-11-27T07:07:55.248Z,11.20
2022-11-27T07:10:24.314Z,11.20
2022-11-27T07:12:53.372Z,11.20
2022-11-27T07:15:22.485Z,11.30
2022-11-27T07:17:57.447Z,11.30
2022-11-27T07:20:27.417Z,11.30
2022-11-27T07:22:57.328Z,11.30
2022-11-27T07:25:26.322Z,11.30
2022-11-27T07:27:58.322Z,11.20
2022-11-27T07:30:27.547Z,11.20
2022-11-27T07:33:00.342Z,11.20
2022-11-27T07:35:38.032Z,11.20
2022-11-27T07:38:08.104Z,11.20
2022-11-27T07:40:39.327Z,11.20
2022-11-27T07:43:08.425Z,11.20
2022-11-27T07:45:37.533Z,11.20
2022-11-27T07:48:08.060Z,11.20
2022-11-27T07:50:37.054Z,11.20
2022-11-27T07:53:05.995Z,11.20
2022-11-27T07:55:42.358Z,11.10
2022-11-27T08:00:59.953Z,11.10
2022-11-27T08:03:30.587Z,11.10
2022-11-27T08:05:59.594Z,11.00
2022-11-27T08:08:28.616Z,11.00
2022-11-27T08:10:57.616Z,11.00
2022-11-27T08:13:26.615Z,11.00
2022-11-27T08:15:55.878Z,10.90
2022-11-27T08:18:25.251Z,11.00
2022-11-27T08:20:55.954Z,10.90
2022-11-27T08:23:25.276Z,10.90
2022-11-27T08:25:54.550Z,10.90
2022-11-27T08:28:23.673Z,10.90
2022-11-27T08:30:58.757Z,10.90
2022-11-27T08:33:28.183Z,10.90
2022-11-27T08:36:02.643Z,10.90
2022-11-27T08:38:32.410Z,10.80
2022-11-27T08:41:03.206Z,10.80
2022-11-27T08:43:34.752Z,10.80
2022-11-27T08:46:06.409Z,10.80
2022-11-27T08:48:36.493Z,10.80
2022-11-27T08:51:11.169Z,10.80
2022-11-27T08:53:40.961Z,10.80
2022-11-27T08:56:12.776Z,10.80
2022-11-27T08:58:41.848Z,10.90
2022-11-27T09:01:13.111Z,10.90
2022-11-27T09:03:42.046Z,10.90
2022-11-27T09:06:14.390Z,10.90
2022-11-27T09:08:44.555Z,10.90
2022-11-27T09:11:14.809Z,11.00
2022-11-27T09:13:44.382Z,10.90
2022-11-27T09:16:15.490Z,11.00
2022-11-27T09:18:46.086Z,11.10
2022-11-27T09:21:18.863Z,11.10
2022-11-27T09:23:48.099Z,11.10
2022-11-27T09:26:18.667Z,11.20
2022-11-27T09:28:47.872Z,11.20
2022-11-27T09:31:18.064Z,11.30
2022-11-27T09:33:47.347Z,11.30
2022-11-27T09:36:19.936Z,11.30
2022-11-27T09:38:49.155Z,11.30
2022-11-27T09:41:39.710Z,11.40
2022-11-27T09:44:27.759Z,11.40
2022-11-27T09:46:57.913Z,11.40
2022-11-27T09:49:30.598Z,11.40
2022-11-27T09:52:05.114Z,11.40
2022-11-27T09:54:38.681Z,11.50
2022-11-27T09:57:10.337Z,11.50
2022-11-27T09:59:42.434Z,11.50
2022-11-27T10:02:18.780Z,11.60
2022-11-27T10:05:12.353Z,11.60
2022-11-27T10:07:48.344Z,11.60
2022-11-27T10:10:31.513Z,11.70
2022-11-27T10:13:11.375Z,11.70
2022-11-27T10:15:45.123Z,11.70
2022-11-27T10:18:22.605Z,11.70
2022-11-27T10:20:55.526Z,11.80
2022-11-27T10:23:45.370Z,11.80
2022-11-27T10:26:19.677Z,11.80
2022-11-27T10:28:57.931Z,11.90
2022-11-27T10:31:35.380Z,11.90
2022-11-27T10:34:08.047Z,11.90
2022-11-27T10:36:41.062Z,12.10
2022-11-27T10:39:17.362Z,12.20
2022-11-27T10:41:53.270Z,12.30
2022-11-27T10:44:34.723Z,12.50
2022-11-27T10:47:04.716Z,12.60
2022-11-27T10:49:36.615Z,12.80
2022-11-27T10:52:05.837Z,12.90
2022-11-27T10:54:39.580Z,13.00
2022-11-27T10:57:30.002Z,13.20
2022-11-27T11:00:07.913Z,13.30
2022-11-27T11:02:38.707Z,13.30
2022-11-27T11:06:04.172Z,13.30
2022-11-27T11:08:19.128Z,13.30
2022-11-27T11:10:55.498Z,13.30
2022-11-27T11:13:28.001Z,13.20
2022-11-27T11:16:00.411Z,13.20
2022-11-27T11:18:31.781Z,13.20
2022-11-27T11:21:02.002Z,13.20
2022-11-27T11:23:36.515Z,13.20
2022-11-27T11:26:16.558Z,13.20
2022-11-27T11:28:52.978Z,13.20
2022-11-27T11:31:29.014Z,13.20
2022-11-27T11:34:00.830Z,13.20
2022-11-27T11:36:30.179Z,13.10
2022-11-27T11:38:59.520Z,13.10
2022-11-27T11:41:39.063Z,13.10
2022-11-27T11:44:21.342Z,13.10
2022-11-27T11:46:54.041Z,13.00
2022-11-27T11:49:27.022Z,13.00
2022-11-27T11:52:08.664Z,13.00
2022-11-27T11:54:49.251Z,13.00
2022-11-27T11:57:52.991Z,12.90
2022-11-27T12:00:29.588Z,12.90
2022-11-27T12:03:24.915Z,12.80
2022-11-27T12:06:14.171Z,12.70
2022-11-27T12:08:55.007Z,12.70
2022-11-27T12:11:30.421Z,12.60
2022-11-27T12:14:17.685Z,12.60
2022-11-27T12:17:03.589Z,12.50
2022-11-27T12:19:51.610Z,12.40
2022-11-27T12:22:38.062Z,12.30
2022-11-27T12:25:23.738Z,12.20
2022-11-27T12:28:08.436Z,12.10
2022-11-27T12:30:46.031Z,12.00
2022-11-27T12:33:33.314Z,11.90
2022-11-27T12:36:09.593Z,11.90
2022-11-27T12:39:02.052Z,11.80
2022-11-27T12:41:57.017Z,11.80
2022-11-27T12:44:36.305Z,12.00
2022-11-27T12:47:13.155Z,12.00
2022-11-27T12:49:46.389Z,12.10
2022-11-27T12:52:20.284Z,12.20
2022-11-27T12:54:54.128Z,12.20
2022-11-27T12:57:28.610Z,12.20
2022-11-27T13:00:00.502Z,12.20
2022-11-27T13:02:38.094Z,12.20
2022-11-27T13:05:11.223Z,12.30
2022-11-27T13:07:45.883Z,12.30
2022-11-27T13:10:23.630Z,12.30
2022-11-27T13:13:02.242Z,12.30
2022-11-27T13:15:35.680Z,12.30
2022-11-27T13:18:19.276Z,12.40
2022-11-27T13:20:52.522Z,12.40
2022-11-27T13:23:22.383Z,12.40
2022-11-27T13:25:55.701Z,12.40
2022-11-27T13:28:32.813Z,12.40
2022-11-27T13:31:02.834Z,12.30
2022-11-27T13:33:40.303Z,12.40
2022-11-27T13:36:21.933Z,12.40
2022-11-27T13:38:57.827Z,12.40
2022-11-27T13:41:34.858Z,12.40
2022-11-27T13:44:10.375Z,12.40
2022-11-27T13:46:48.486Z,12.40
2022-11-27T13:49:27.307Z,12.40
2022-11-27T13:52:06.782Z,12.40
2022-11-27T13:54:35.866Z,12.40
2022-11-27T13:57:12.590Z,12.40
2022-11-27T13:59:41.675Z,12.40
2022-11-27T14:02:11.007Z,12.50
2022-11-27T14:04:54.469Z,12.50
2022-11-27T14:07:36.239Z,12.50
2022-11-27T14:10:10.587Z,12.40
2022-11-27T14:12:39.719Z,12.40
2022-11-27T14:15:11.389Z,12.40
2022-11-27T14:17:42.893Z,12.40
2022-11-27T14:20:28.097Z,12.40
2022-11-27T14:23:14.477Z,12.40
2022-11-27T14:25:43.532Z,12.40
2022-11-27T14:28:17.963Z,12.40
2022-11-27T14:30:50.584Z,12.30
2022-11-27T14:33:21.267Z,12.30
2022-11-27T14:35:53.846Z,12.30
2022-11-27T14:38:23.567Z,12.30
2022-11-27T14:40:55.120Z,12.30
2022-11-27T14:43:26.376Z,12.30
2022-11-27T14:45:58.184Z,12.20
2022-11-27T14:48:28.709Z,12.20
2022-11-27T14:51:00.621Z,12.20
2022-11-27T14:53:30.464Z,12.20
2022-11-27T14:56:00.411Z,12.20
2022-11-27T14:58:31.152Z,12.10
2022-11-27T15:01:01.775Z,12.10
2022-11-27T15:03:33.520Z,12.10
2022-11-27T15:06:07.371Z,12.00
2022-11-27T15:08:38.743Z,12.00
2022-11-27T15:11:07.736Z,12.00
2022-11-27T15:13:38.968Z,12.00
2022-11-27T15:16:14.312Z,12.00
2022-11-27T15:18:49.829Z,12.00
2022-11-27T15:21:25.116Z,11.90
2022-11-27T15:23:55.773Z,11.90
2022-11-27T15:26:35.814Z,11.90
2022-11-27T15:29:05.277Z,11.90
2022-11-27T15:31:37.490Z,11.90
2022-11-27T15:34:21.706Z,11.90
2022-11-27T15:36:58.015Z,11.90
2022-11-27T15:39:32.476Z,11.90
2022-11-27T15:42:02.807Z,11.90
2022-11-27T15:44:34.069Z,11.90
2022-11-27T15:47:05.010Z,11.80
2022-11-27T15:49:34.489Z,11.80
2022-11-27T15:52:05.196Z,11.80
2022-11-27T15:54:34.217Z,11.70
2022-11-27T15:57:03.433Z,11.70
2022-11-27T15:59:32.843Z,11.70
2022-11-27T16:02:01.916Z,11.60
2022-11-27T16:04:31.093Z,11.60
2022-11-27T16:07:00.187Z,11.60
2022-11-27T16:09:30.833Z,11.50
2022-11-27T16:11:59.969Z,11.50
2022-11-27T16:14:29.297Z,11.50
2022-11-27T16:16:58.523Z,11.50
2022-11-27T16:19:27.689Z,11.50
2022-11-27T16:21:56.877Z,11.50
2022-11-27T16:24:25.882Z,11.40
2022-11-27T16:26:56.325Z,11.40
2022-11-27T16:29:25.327Z,11.50
2022-11-27T16:31:54.397Z,11.40
2022-11-27T16:34:24.889Z,11.40
2022-11-27T16:36:54.669Z,11.40
2022-11-27T16:39:24.118Z,11.40
2022-11-27T16:41:53.524Z,11.40
2022-11-27T16:44:24.018Z,11.40
2022-11-27T16:46:53.755Z,11.40
2022-11-27T16:49:23.120Z,11.40
2022-11-27T16:51:52.558Z,11.40
2022-11-27T16:54:21.599Z,11.40
2022-11-27T16:56:51.701Z,11.40
2022-11-27T16:59:20.714Z,11.30
2022-11-27T17:01:52.381Z,11.30
2022-11-27T17:04:25.013Z,11.30
2022-11-27T17:06:54.410Z,11.30
2022-11-27T17:09:26.154Z,11.30
2022-11-27T17:11:57.476Z,11.30
2022-11-27T17:14:29.671Z,11.40
2022-11-27T17:17:00.633Z,11.30
2022-11-27T17:19:31.818Z,11.30
2022-11-27T17:22:01.493Z,11.30
2022-11-27T17:24:30.529Z,11.30
2022-11-27T17:26:59.600Z,11.30
2022-11-27T17:29:34.367Z,11.30
2022-11-27T17:32:10.032Z,11.30
2022-11-27T17:34:39.431Z,11.30
2022-11-27T17:37:08.535Z,11.20
2022-11-27T17:39:37.691Z,11.20
2022-11-27T17:42:12.629Z,11.20
2022-11-27T17:44:42.840Z,11.20
2022-11-27T17:47:13.400Z,11.20
2022-11-27T17:49:42.673Z,11.20
2022-11-27T17:52:12.198Z,11.20
2022-11-27T17:54:41.399Z,11.20
2022-11-27T17:57:11.094Z,11.20
2022-11-27T17:59:41.222Z,11.20
2022-11-27T18:02:13.170Z,11.20
2022-11-27T18:04:42.265Z,11.10
2022-11-27T18:07:11.448Z,11.10
2022-11-27T18:09:40.856Z,11.10
2022-11-27T18:12:10.082Z,11.20
2022-11-27T18:14:39.579Z,11.10
2022-11-27T18:17:08.732Z,11.10
2022-11-27T18:19:39.474Z,11.10
2022-11-27T18:22:09.268Z,11.10
2022-11-27T18:24:41.649Z,11.10
2022-11-27T18:27:11.224Z,11.10
2022-11-27T18:29:42.814Z,11.10
2022-11-27T18:32:13.431Z,11.10
2022-11-27T18:34:44.310Z,11.10
2022-11-27T18:37:14.426Z,11.10
2022-11-27T18:39:44.580Z,11.10
2022-11-27T18:42:14.368Z,11.10
2022-11-27T18:44:44.983Z,11.10
2022-11-27T18:47:14.958Z,11.10
2022-11-27T18:49:48.984Z,11.10
2022-11-27T18:52:20.230Z,11.10
2022-11-27T18:54:49.255Z,11.10
2022-11-27T18:57:19.692Z,11.10
2022-11-27T18:59:49.713Z,11.10
2022-11-27T19:02:20.153Z,11.10
2022-11-27T19:04:50.725Z,11.10
2022-11-27T19:07:20.032Z,11.20
2022-11-27T19:09:49.228Z,11.20
2022-11-27T19:12:18.405Z,11.20
2022-11-27T19:14:48.751Z,11.10
2022-11-27T19:17:18.619Z,11.10
2022-11-27T19:20:04.927Z,11.00
2022-11-27T19:22:35.512Z,11.00
2022-11-27T19:25:04.581Z,11.00
2022-11-27T19:27:34.215Z,10.90
2022-11-27T19:30:03.333Z,10.90
2022-11-27T19:32:33.313Z,10.80
2022-11-27T19:35:07.142Z,10.80
2022-11-27T19:37:38.141Z,10.70
2022-11-27T19:40:09.157Z,10.60
2022-11-27T19:42:38.649Z,10.50
2022-11-27T19:45:09.018Z,10.50
2022-11-27T19:47:38.070Z,10.40
2022-11-27T19:50:08.366Z,10.30
2022-11-27T19:52:38.909Z,10.30
2022-11-27T19:55:08.918Z,10.30
2022-11-27T19:57:38.482Z,10.40
2022-11-27T20:00:09.353Z,10.40
2022-11-27T20:02:46.513Z,10.40
2022-11-27T20:05:15.537Z,10.40
2022-11-27T20:07:46.875Z,10.40
2022-11-27T20:10:16.588Z,10.40
2022-11-27T20:12:45.743Z,10.40
2022-11-27T20:15:16.942Z,10.40
2022-11-27T20:17:46.002Z,10.40
2022-11-27T20:20:16.757Z,10.50
2022-11-27T20:22:47.249Z,10.50
2022-11-27T20:25:20.550Z,10.50
2022-11-27T20:27:51.102Z,10.50
2022-11-27T20:30:20.993Z,10.50
2022-11-27T20:32:50.033Z,10.50
2022-11-27T20:35:20.825Z,10.50
2022-11-27T20:37:51.329Z,10.50
2022-11-27T20:40:23.484Z,10.50
2022-11-27T20:42:52.776Z,10.50
2022-11-27T20:45:21.946Z,10.50
2022-11-27T20:47:51.843Z,10.50
2022-11-27T20:50:21.600Z,10.60
2022-11-27T20:52:52.207Z,10.60
2022-11-27T20:55:21.200Z,10.60
2022-11-27T20:57:54.697Z,10.60
2022-11-27T21:00:24.858Z,10.60
2022-11-27T21:02:54.405Z,10.60
2022-11-27T21:05:23.508Z,10.60
2022-11-27T21:07:54.062Z,10.60
2022-11-27T21:10:23.870Z,10.70
2022-11-27T21:12:52.937Z,10.70
2022-11-27T21:15:22.006Z,10.60
2022-11-27T21:17:51.009Z,10.60
2022-11-27T21:20:20.753Z,10.60
2022-11-27T21:22:50.073Z,10.60
2022-11-27T21:25:25.295Z,10.60
2022-11-27T21:27:55.976Z,10.60
2022-11-27T21:30:25.342Z,10.70
2022-11-27T21:32:54.407Z,10.70
2022-11-27T21:35:26.440Z,10.70
2022-11-27T21:37:59.268Z,10.70
2022-11-27T21:40:29.673Z,10.70
2022-11-27T21:42:58.819Z,10.70
2022-11-27T21:45:27.911Z,10.70
2022-11-27T21:47:56.930Z,10.70
2022-11-27T21:50:26.179Z,10.70
2022-11-27T21:52:55.918Z,10.70
2022-11-27T21:55:25.124Z,10.60
2022-11-27T21:57:55.681Z,10.60
2022-11-27T22:00:25.473Z,10.60
2022-11-27T22:02:54.556Z,10.60
2022-11-27T22:05:23.606Z,10.60
2022-11-27T22:07:53.339Z,10.60
2022-11-27T22:10:22.363Z,10.60
2022-11-27T22:12:51.345Z,10.60
2022-11-27T22:15:21.889Z,10.60
2022-11-27T22:17:50.870Z,10.60
2022-11-27T22:20:23.277Z,10.60
2022-11-27T22:22:52.740Z,10.60
2022-11-27T22:25:22.337Z,10.60
2022-11-27T22:27:51.481Z,10.60
2022-11-27T22:30:26.345Z,10.60
2022-11-27T22:32:56.518Z,10.60
2022-11-27T22:35:26.367Z,10.50
2022-11-27T22:37:56.586Z,10.50
2022-11-27T22:40:25.749Z,10.50
2022-11-27T22:42:55.218Z,10.60
2022-11-27T22:45:26.417Z,10.50
2022-11-27T22:47:55.698Z,10.40
2022-11-27T22:50:24.774Z,10.40
2022-11-27T22:52:58.134Z,10.40
2022-11-27T22:55:27.678Z,10.40
2022-11-27T22:57:56.738Z,10.40
2022-11-27T23:00:27.194Z,10.30
2022-11-27T23:02:56.384Z,10.40
2022-11-27T23:05:25.561Z,10.30
2022-11-27T23:07:55.479Z,10.40
2022-11-27T23:10:24.910Z,10.40
2022-11-27T23:12:53.964Z,10.40
2022-11-27T23:15:22.916Z,10.40
2022-11-27T23:17:53.353Z,10.40
2022-11-27T23:20:22.484Z,10.30
2022-11-27T23:22:52.854Z,10.30
2022-11-27T23:25:21.885Z,10.30
2022-11-27T23:27:50.922Z,10.30
2022-11-27T23:30:20.029Z,10.30
2022-11-27T23:32:49.063Z,10.30
2022-11-27T23:35:19.511Z,10.20
2022-11-27T23:37:48.508Z,10.30
2022-11-27T23:40:17.599Z,10.20
2022-11-27T23:42:46.724Z,10.20
2022-11-27T23:45:15.827Z,10.20
2022-11-27T23:47:44.853Z,10.10
2022-11-27T23:50:13.980Z,10.20
2022-11-27T23:52:44.414Z,10.10
2022-11-27T23:55:14.452Z,10.20
2022-11-27T23:57:43.473Z,10.20
